sensor_id;sensor_type;location;lat;lon;timestamp;P1;P2;P0
62631;PMS5003;48703;51.248;-0.546;2022-09-09T00:02:58;3.30;3.30;
62631;PMS5003;48703;51.248;-0.546;2022-09-09T00:05:59;3.21;3.21;
62631;PMS5003;48703;51.248;-0.546;2022-09-09T00:09:01;5.07;2.89;
62631;PMS5003;48703;51.248;-0.546;2022-09-09T00:12:01;4.00;3.96;
62631;PMS5003;48703;51.248;-0.546;2022-09-09T00:15:02;3.91;3.91;
62631;PMS5003;48703;51.248;-0.546;2022-09-09T00:18:06;4.29;3.67;
62631;PMS5003;48703;51.248;-0.546;2022-09-09T00:21:05;3.93;3.93;
62631;PMS5003;48703;51.248;-0.546;2022-09-09T00:24:09;3.59;3.14;
62631;PMS5003;48703;51.248;-0.546;2022-09-09T00:27:08;4.64;3.91;
62631;PMS5003;48703;51.248;-0.546;2022-09-09T00:30:14;3.87;3.87;
62631;PMS5003;48703;51.248;-0.546;2022-09-09T00:33:11;6.31;2.90;
62631;PMS5003;48703;51.248;-0.546;2022-09-09T00:36:13;3.46;3.46;
62631;PMS5003;48703;51.248;-0.546;2022-09-09T00:39:17;4.39;4.09;
62631;PMS5003;48703;51.248;-0.546;2022-09-09T00:42:16;3.13;3.13;
62631;PMS5003;48703;51.248;-0.546;2022-09-09T00:45:19;4.56;3.61;
62631;PMS5003;48703;51.248;-0.546;2022-09-09T00:48:18;4.73;3.91;
62631;PMS5003;48703;51.248;-0.546;2022-09-09T00:51:22;3.76;3.63;
62631;PMS5003;48703;51.248;-0.546;2022-09-09T00:54:25;3.99;3.97;
62631;PMS5003;48703;51.248;-0.546;2022-09-09T00:57:25;4.59;4.16;
62631;PMS5003;48703;51.248;-0.546;2022-09-09T01:00:25;3.57;3.03;
62631;PMS5003;48703;51.248;-0.546;2022-09-09T01:03:29;4.16;3.26;
62631;PMS5003;48703;51.248;-0.546;2022-09-09T01:06:28;4.34;3.44;
62631;PMS5003;48703;51.248;-0.546;2022-09-09T01:09:29;4.13;4.09;
62631;PMS5003;48703;51.248;-0.546;2022-09-09T01:12:33;4.64;3.70;
62631;PMS5003;48703;51.248;-0.546;2022-09-09T01:15:31;4.37;3.66;
62631;PMS5003;48703;51.248;-0.546;2022-09-09T01:18:33;3.51;3.01;
62631;PMS5003;48703;51.248;-0.546;2022-09-09T01:21:36;4.64;3.74;
62631;PMS5003;48703;51.248;-0.546;2022-09-09T01:24:38;3.19;2.76;
62631;PMS5003;48703;51.248;-0.546;2022-09-09T01:27:37;4.03;3.56;
62631;PMS5003;48703;51.248;-0.546;2022-09-09T01:30:40;3.01;2.67;
62631;PMS5003;48703;51.248;-0.546;2022-09-09T01:33:40;4.59;4.03;
62631;PMS5003;48703;51.248;-0.546;2022-09-09T01:36:42;3.94;3.77;
62631;PMS5003;48703;51.248;-0.546;2022-09-09T01:39:43;4.30;4.04;
62631;PMS5003;48703;51.248;-0.546;2022-09-09T01:42:45;3.54;3.33;
62631;PMS5003;48703;51.248;-0.546;2022-09-09T01:45:46;3.47;2.70;
62631;PMS5003;48703;51.248;-0.546;2022-09-09T01:48:48;4.71;4.03;
62631;PMS5003;48703;51.248;-0.546;2022-09-09T01:51:51;3.96;3.44;
62631;PMS5003;48703;51.248;-0.546;2022-09-09T01:54:51;3.47;3.47;
62631;PMS5003;48703;51.248;-0.546;2022-09-09T01:57:55;3.41;3.41;
62631;PMS5003;48703;51.248;-0.546;2022-09-09T02:00:55;4.46;4.32;
62631;PMS5003;48703;51.248;-0.546;2022-09-09T02:03:56;4.69;4.34;
62631;PMS5003;48703;51.248;-0.546;2022-09-09T02:06:56;3.23;3.20;
62631;PMS5003;48703;51.248;-0.546;2022-09-09T02:10:02;5.01;3.87;
62631;PMS5003;48703;51.248;-0.546;2022-09-09T02:13:01;3.66;3.54;
62631;PMS5003;48703;51.248;-0.546;2022-09-09T02:16:03;4.57;3.47;
62631;PMS5003;48703;51.248;-0.546;2022-09-09T02:19:03;4.43;3.77;
62631;PMS5003;48703;51.248;-0.546;2022-09-09T02:22:04;4.57;4.44;
62631;PMS5003;48703;51.248;-0.546;2022-09-09T02:25:06;3.96;3.96;
62631;PMS5003;48703;51.248;-0.546;2022-09-09T02:28:07;4.46;4.00;
62631;PMS5003;48703;51.248;-0.546;2022-09-09T02:31:08;4.89;3.97;
62631;PMS5003;48703;51.248;-0.546;2022-09-09T02:34:10;5.51;5.44;
62631;PMS5003;48703;51.248;-0.546;2022-09-09T02:37:11;2.93;2.90;
62631;PMS5003;48703;51.248;-0.546;2022-09-09T02:40:13;4.73;4.13;
62631;PMS5003;48703;51.248;-0.546;2022-09-09T02:43:14;4.07;3.54;
62631;PMS5003;48703;51.248;-0.546;2022-09-09T02:46:24;4.33;4.33;
62631;PMS5003;48703;51.248;-0.546;2022-09-09T02:49:18;4.69;3.34;
62631;PMS5003;48703;51.248;-0.546;2022-09-09T02:52:20;4.59;4.07;
62631;PMS5003;48703;51.248;-0.546;2022-09-09T02:55:21;5.11;3.69;
62631;PMS5003;48703;51.248;-0.546;2022-09-09T02:58:22;4.81;4.00;
62631;PMS5003;48703;51.248;-0.546;2022-09-09T03:01:23;4.46;4.20;
62631;PMS5003;48703;51.248;-0.546;2022-09-09T03:04:24;4.69;3.83;
62631;PMS5003;48703;51.248;-0.546;2022-09-09T03:07:26;2.77;2.70;
62631;PMS5003;48703;51.248;-0.546;2022-09-09T03:10:27;4.10;3.69;
62631;PMS5003;48703;51.248;-0.546;2022-09-09T03:13:29;4.07;3.33;
62631;PMS5003;48703;51.248;-0.546;2022-09-09T03:16:30;4.01;3.59;
62631;PMS5003;48703;51.248;-0.546;2022-09-09T03:19:32;4.20;3.86;
62631;PMS5003;48703;51.248;-0.546;2022-09-09T03:22:33;3.26;3.10;
62631;PMS5003;48703;51.248;-0.546;2022-09-09T03:25:35;4.11;3.84;
62631;PMS5003;48703;51.248;-0.546;2022-09-09T03:28:36;4.31;4.11;
62631;PMS5003;48703;51.248;-0.546;2022-09-09T03:31:38;4.23;3.31;
62631;PMS5003;48703;51.248;-0.546;2022-09-09T03:34:39;7.21;5.70;
62631;PMS5003;48703;51.248;-0.546;2022-09-09T03:37:41;4.21;4.09;
62631;PMS5003;48703;51.248;-0.546;2022-09-09T03:40:48;5.40;3.61;
62631;PMS5003;48703;51.248;-0.546;2022-09-09T03:43:44;3.00;2.81;
62631;PMS5003;48703;51.248;-0.546;2022-09-09T03:46:45;5.80;5.14;
62631;PMS5003;48703;51.248;-0.546;2022-09-09T03:49:47;4.31;3.81;
62631;PMS5003;48703;51.248;-0.546;2022-09-09T03:52:48;4.64;4.00;
62631;PMS5003;48703;51.248;-0.546;2022-09-09T03:55:50;5.30;4.87;
62631;PMS5003;48703;51.248;-0.546;2022-09-09T03:58:51;5.09;5.09;
62631;PMS5003;48703;51.248;-0.546;2022-09-09T04:01:53;5.76;5.76;
62631;PMS5003;48703;51.248;-0.546;2022-09-09T04:04:54;5.84;5.69;
62631;PMS5003;48703;51.248;-0.546;2022-09-09T04:07:56;4.54;4.11;
62631;PMS5003;48703;51.248;-0.546;2022-09-09T04:10:57;6.54;5.36;
62631;PMS5003;48703;51.248;-0.546;2022-09-09T04:13:59;6.67;5.11;
62631;PMS5003;48703;51.248;-0.546;2022-09-09T04:17:00;6.41;6.13;
62631;PMS5003;48703;51.248;-0.546;2022-09-09T04:20:02;4.34;4.34;
62631;PMS5003;48703;51.248;-0.546;2022-09-09T04:23:03;7.13;6.20;
62631;PMS5003;48703;51.248;-0.546;2022-09-09T04:26:05;7.46;6.97;
62631;PMS5003;48703;51.248;-0.546;2022-09-09T04:29:06;8.56;6.89;
62631;PMS5003;48703;51.248;-0.546;2022-09-09T04:32:08;7.53;6.80;
62631;PMS5003;48703;51.248;-0.546;2022-09-09T04:35:09;6.14;6.14;
62631;PMS5003;48703;51.248;-0.546;2022-09-09T04:38:11;9.00;7.83;
62631;PMS5003;48703;51.248;-0.546;2022-09-09T04:41:12;8.26;6.74;
62631;PMS5003;48703;51.248;-0.546;2022-09-09T04:44:13;7.74;6.57;
62631;PMS5003;48703;51.248;-0.546;2022-09-09T04:47:15;8.44;7.11;
62631;PMS5003;48703;51.248;-0.546;2022-09-09T04:50:16;7.94;6.57;
62631;PMS5003;48703;51.248;-0.546;2022-09-09T04:53:18;8.07;7.71;
62631;PMS5003;48703;51.248;-0.546;2022-09-09T04:56:19;8.59;6.74;
62631;PMS5003;48703;51.248;-0.546;2022-09-09T04:59:21;7.43;6.10;
62631;PMS5003;48703;51.248;-0.546;2022-09-09T05:02:22;7.06;6.59;
62631;PMS5003;48703;51.248;-0.546;2022-09-09T05:05:23;8.16;7.39;
62631;PMS5003;48703;51.248;-0.546;2022-09-09T05:08:24;9.53;7.81;
62631;PMS5003;48703;51.248;-0.546;2022-09-09T05:11:27;10.59;7.70;
62631;PMS5003;48703;51.248;-0.546;2022-09-09T05:14:28;10.50;9.30;
62631;PMS5003;48703;51.248;-0.546;2022-09-09T05:17:29;8.70;8.10;
62631;PMS5003;48703;51.248;-0.546;2022-09-09T05:20:30;8.29;7.51;
62631;PMS5003;48703;51.248;-0.546;2022-09-09T05:23:32;8.14;7.14;
62631;PMS5003;48703;51.248;-0.546;2022-09-09T05:26:33;9.29;8.91;
62631;PMS5003;48703;51.248;-0.546;2022-09-09T05:29:34;9.91;9.07;
62631;PMS5003;48703;51.248;-0.546;2022-09-09T05:32:36;9.70;9.06;
62631;PMS5003;48703;51.248;-0.546;2022-09-09T05:35:37;9.20;8.67;
62631;PMS5003;48703;51.248;-0.546;2022-09-09T05:38:39;9.64;8.31;
62631;PMS5003;48703;51.248;-0.546;2022-09-09T05:41:40;8.60;8.60;
62631;PMS5003;48703;51.248;-0.546;2022-09-09T05:44:41;9.74;8.63;
62631;PMS5003;48703;51.248;-0.546;2022-09-09T05:47:43;10.26;9.29;
62631;PMS5003;48703;51.248;-0.546;2022-09-09T05:50:52;10.47;9.31;
62631;PMS5003;48703;51.248;-0.546;2022-09-09T05:53:45;9.20;8.60;
62631;PMS5003;48703;51.248;-0.546;2022-09-09T05:56:46;9.80;8.54;
62631;PMS5003;48703;51.248;-0.546;2022-09-09T05:59:48;9.17;8.53;
62631;PMS5003;48703;51.248;-0.546;2022-09-09T06:02:50;8.93;8.63;
62631;PMS5003;48703;51.248;-0.546;2022-09-09T06:05:56;8.62;8.51;
62631;PMS5003;48703;51.248;-0.546;2022-09-09T06:08:53;8.36;8.23;
62631;PMS5003;48703;51.248;-0.546;2022-09-09T06:11:53;10.39;8.84;
62631;PMS5003;48703;51.248;-0.546;2022-09-09T06:14:55;9.27;8.31;
62631;PMS5003;48703;51.248;-0.546;2022-09-09T06:17:56;8.81;8.14;
62631;PMS5003;48703;51.248;-0.546;2022-09-09T06:20:58;9.40;9.21;
62631;PMS5003;48703;51.248;-0.546;2022-09-09T06:23:59;7.77;7.77;
62631;PMS5003;48703;51.248;-0.546;2022-09-09T06:27:00;9.29;7.37;
62631;PMS5003;48703;51.248;-0.546;2022-09-09T06:30:02;8.33;7.77;
62631;PMS5003;48703;51.248;-0.546;2022-09-09T06:33:03;12.10;10.74;
62631;PMS5003;48703;51.248;-0.546;2022-09-09T06:36:05;8.96;8.76;
62631;PMS5003;48703;51.248;-0.546;2022-09-09T06:39:06;13.61;11.74;
62631;PMS5003;48703;51.248;-0.546;2022-09-09T06:42:08;9.81;9.81;
62631;PMS5003;48703;51.248;-0.546;2022-09-09T06:45:09;10.76;9.23;
62631;PMS5003;48703;51.248;-0.546;2022-09-09T06:48:10;9.17;8.73;
62631;PMS5003;48703;51.248;-0.546;2022-09-09T06:51:13;10.52;9.74;
62631;PMS5003;48703;51.248;-0.546;2022-09-09T06:54:14;9.60;8.21;
62631;PMS5003;48703;51.248;-0.546;2022-09-09T06:57:15;9.58;8.64;
62631;PMS5003;48703;51.248;-0.546;2022-09-09T07:00:16;9.14;7.57;
62631;PMS5003;48703;51.248;-0.546;2022-09-09T07:03:18;8.61;8.14;
62631;PMS5003;48703;51.248;-0.546;2022-09-09T07:06:20;10.49;9.91;
62631;PMS5003;48703;51.248;-0.546;2022-09-09T07:09:21;9.86;8.77;
62631;PMS5003;48703;51.248;-0.546;2022-09-09T07:12:22;7.41;6.79;
62631;PMS5003;48703;51.248;-0.546;2022-09-09T07:15:24;9.09;8.09;
62631;PMS5003;48703;51.248;-0.546;2022-09-09T07:18:25;10.17;8.77;
62631;PMS5003;48703;51.248;-0.546;2022-09-09T07:21:27;10.01;8.73;
62631;PMS5003;48703;51.248;-0.546;2022-09-09T07:24:28;9.33;8.50;
62631;PMS5003;48703;51.248;-0.546;2022-09-09T07:27:30;7.74;7.53;
62631;PMS5003;48703;51.248;-0.546;2022-09-09T07:30:31;9.41;8.20;
62631;PMS5003;48703;51.248;-0.546;2022-09-09T07:33:33;8.96;8.67;
62631;PMS5003;48703;51.248;-0.546;2022-09-09T07:36:35;7.89;7.63;
62631;PMS5003;48703;51.248;-0.546;2022-09-09T07:39:35;8.06;7.93;
62631;PMS5003;48703;51.248;-0.546;2022-09-09T07:42:37;9.89;8.86;
62631;PMS5003;48703;51.248;-0.546;2022-09-09T07:45:38;11.04;9.33;
62631;PMS5003;48703;51.248;-0.546;2022-09-09T07:48:43;9.63;9.09;
62631;PMS5003;48703;51.248;-0.546;2022-09-09T07:51:43;10.03;9.26;
62631;PMS5003;48703;51.248;-0.546;2022-09-09T07:54:44;11.14;10.79;
62631;PMS5003;48703;51.248;-0.546;2022-09-09T07:57:45;9.90;9.29;
62631;PMS5003;48703;51.248;-0.546;2022-09-09T08:00:46;12.44;11.67;
62631;PMS5003;48703;51.248;-0.546;2022-09-09T08:03:52;11.33;10.34;
62631;PMS5003;48703;51.248;-0.546;2022-09-09T08:06:50;15.29;12.94;
62631;PMS5003;48703;51.248;-0.546;2022-09-09T08:09:51;13.81;12.51;
62631;PMS5003;48703;51.248;-0.546;2022-09-09T08:12:52;11.26;11.21;
62631;PMS5003;48703;51.248;-0.546;2022-09-09T08:15:54;14.54;13.87;
62631;PMS5003;48703;51.248;-0.546;2022-09-09T08:18:56;14.24;12.36;
62631;PMS5003;48703;51.248;-0.546;2022-09-09T08:21:57;16.66;15.26;
62631;PMS5003;48703;51.248;-0.546;2022-09-09T08:24:58;14.64;13.03;
62631;PMS5003;48703;51.248;-0.546;2022-09-09T08:27:59;16.03;14.71;
62631;PMS5003;48703;51.248;-0.546;2022-09-09T08:31:08;15.51;14.33;
62631;PMS5003;48703;51.248;-0.546;2022-09-09T08:34:01;13.99;13.31;
62631;PMS5003;48703;51.248;-0.546;2022-09-09T08:37:02;17.19;14.73;
62631;PMS5003;48703;51.248;-0.546;2022-09-09T08:40:04;14.54;14.09;
62631;PMS5003;48703;51.248;-0.546;2022-09-09T08:43:05;14.54;13.59;
62631;PMS5003;48703;51.248;-0.546;2022-09-09T08:46:07;13.59;12.86;
62631;PMS5003;48703;51.248;-0.546;2022-09-09T08:49:19;16.84;15.01;
62631;PMS5003;48703;51.248;-0.546;2022-09-09T08:52:09;15.07;14.33;
62631;PMS5003;48703;51.248;-0.546;2022-09-09T08:55:15;13.31;12.67;
62631;PMS5003;48703;51.248;-0.546;2022-09-09T08:58:12;14.39;11.94;
62631;PMS5003;48703;51.248;-0.546;2022-09-09T09:01:17;15.03;12.66;
62631;PMS5003;48703;51.248;-0.546;2022-09-09T09:04:17;10.87;10.27;
62631;PMS5003;48703;51.248;-0.546;2022-09-09T09:07:18;10.57;9.27;
62631;PMS5003;48703;51.248;-0.546;2022-09-09T09:10:19;9.39;8.27;
62631;PMS5003;48703;51.248;-0.546;2022-09-09T09:13:19;9.93;8.84;
62631;PMS5003;48703;51.248;-0.546;2022-09-09T09:16:21;8.10;7.74;
62631;PMS5003;48703;51.248;-0.546;2022-09-09T09:19:20;9.41;8.04;
62631;PMS5003;48703;51.248;-0.546;2022-09-09T09:22:22;8.40;7.90;
62631;PMS5003;48703;51.248;-0.546;2022-09-09T09:25:24;9.49;8.16;
62631;PMS5003;48703;51.248;-0.546;2022-09-09T09:28:26;6.56;5.80;
62631;PMS5003;48703;51.248;-0.546;2022-09-09T09:31:26;6.67;6.60;
62631;PMS5003;48703;51.248;-0.546;2022-09-09T09:34:28;6.27;5.97;
62631;PMS5003;48703;51.248;-0.546;2022-09-09T09:37:30;7.69;7.23;
62631;PMS5003;48703;51.248;-0.546;2022-09-09T09:40:31;6.20;6.20;
62631;PMS5003;48703;51.248;-0.546;2022-09-09T09:43:33;6.79;6.63;
62631;PMS5003;48703;51.248;-0.546;2022-09-09T09:46:34;5.66;5.41;
62631;PMS5003;48703;51.248;-0.546;2022-09-09T09:49:35;5.07;4.86;
62631;PMS5003;48703;51.248;-0.546;2022-09-09T09:52:36;5.64;5.40;
62631;PMS5003;48703;51.248;-0.546;2022-09-09T09:55:44;6.30;4.89;
62631;PMS5003;48703;51.248;-0.546;2022-09-09T09:58:47;5.00;4.53;
62631;PMS5003;48703;51.248;-0.546;2022-09-09T10:01:41;4.31;4.06;
62631;PMS5003;48703;51.248;-0.546;2022-09-09T10:04:42;4.01;3.84;
62631;PMS5003;48703;51.248;-0.546;2022-09-09T10:07:44;4.19;3.84;
62631;PMS5003;48703;51.248;-0.546;2022-09-09T10:10:48;3.14;3.14;
62631;PMS5003;48703;51.248;-0.546;2022-09-09T10:13:48;3.74;3.31;
62631;PMS5003;48703;51.248;-0.546;2022-09-09T10:16:52;4.30;3.97;
62631;PMS5003;48703;51.248;-0.546;2022-09-09T10:19:53;3.04;2.69;
62631;PMS5003;48703;51.248;-0.546;2022-09-09T10:22:51;3.17;2.89;
62631;PMS5003;48703;51.248;-0.546;2022-09-09T10:25:57;4.33;3.03;
62631;PMS5003;48703;51.248;-0.546;2022-09-09T10:28:58;3.14;2.46;
62631;PMS5003;48703;51.248;-0.546;2022-09-09T10:31:58;2.70;2.70;
62631;PMS5003;48703;51.248;-0.546;2022-09-09T10:34:57;4.30;4.13;
62631;PMS5003;48703;51.248;-0.546;2022-09-09T10:38:05;4.06;3.73;
62631;PMS5003;48703;51.248;-0.546;2022-09-09T10:41:07;4.83;3.63;
62631;PMS5003;48703;51.248;-0.546;2022-09-09T10:44:09;4.09;4.03;
62631;PMS5003;48703;51.248;-0.546;2022-09-09T10:47:10;4.51;4.26;
62631;PMS5003;48703;51.248;-0.546;2022-09-09T10:50:12;3.90;3.90;
62631;PMS5003;48703;51.248;-0.546;2022-09-09T10:53:08;5.16;4.31;
62631;PMS5003;48703;51.248;-0.546;2022-09-09T10:56:08;4.91;3.70;
62631;PMS5003;48703;51.248;-0.546;2022-09-09T10:59:10;3.79;3.36;
62631;PMS5003;48703;51.248;-0.546;2022-09-09T11:02:12;3.57;2.64;
62631;PMS5003;48703;51.248;-0.546;2022-09-09T11:05:14;4.90;3.70;
62631;PMS5003;48703;51.248;-0.546;2022-09-09T11:08:13;2.43;2.43;
62631;PMS5003;48703;51.248;-0.546;2022-09-09T11:11:15;3.11;2.91;
62631;PMS5003;48703;51.248;-0.546;2022-09-09T11:14:18;3.51;3.30;
62631;PMS5003;48703;51.248;-0.546;2022-09-09T11:17:18;2.61;2.37;
62631;PMS5003;48703;51.248;-0.546;2022-09-09T11:20:19;3.03;3.03;
62631;PMS5003;48703;51.248;-0.546;2022-09-09T11:23:21;2.80;2.80;
62631;PMS5003;48703;51.248;-0.546;2022-09-09T11:26:24;5.30;4.49;
62631;PMS5003;48703;51.248;-0.546;2022-09-09T11:28:34;5.49;5.09;
62631;PMS5003;48703;51.248;-0.546;2022-09-09T11:31:37;5.87;4.66;
62631;PMS5003;48703;51.248;-0.546;2022-09-09T11:34:37;4.97;4.67;
62631;PMS5003;48703;51.248;-0.546;2022-09-09T11:37:43;2.81;2.81;
62631;PMS5003;48703;51.248;-0.546;2022-09-09T11:40:30;2.83;2.83;
62631;PMS5003;48703;51.248;-0.546;2022-09-09T11:43:32;2.76;2.76;
62631;PMS5003;48703;51.248;-0.546;2022-09-09T11:46:33;2.21;2.21;
62631;PMS5003;48703;51.248;-0.546;2022-09-09T11:49:39;1.80;1.80;
62631;PMS5003;48703;51.248;-0.546;2022-09-09T11:52:36;3.07;2.71;
62631;PMS5003;48703;51.248;-0.546;2022-09-09T11:55:36;1.33;1.33;
62631;PMS5003;48703;51.248;-0.546;2022-09-09T11:58:38;2.49;2.49;
62631;PMS5003;48703;51.248;-0.546;2022-09-09T12:01:39;2.16;1.93;
62631;PMS5003;48703;51.248;-0.546;2022-09-09T12:04:40;2.76;2.53;
62631;PMS5003;48703;51.248;-0.546;2022-09-09T12:07:41;2.20;1.99;
62631;PMS5003;48703;51.248;-0.546;2022-09-09T12:10:52;1.36;1.36;
62631;PMS5003;48703;51.248;-0.546;2022-09-09T12:13:51;3.83;3.01;
62631;PMS5003;48703;51.248;-0.546;2022-09-09T12:16:45;4.97;4.71;
62631;PMS5003;48703;51.248;-0.546;2022-09-09T12:19:47;3.93;3.41;
62631;PMS5003;48703;51.248;-0.546;2022-09-09T12:23:08;4.20;3.60;
62631;PMS5003;48703;51.248;-0.546;2022-09-09T12:25:56;3.73;3.73;
62631;PMS5003;48703;51.248;-0.546;2022-09-09T12:28:53;5.37;5.07;
62631;PMS5003;48703;51.248;-0.546;2022-09-09T12:31:54;12.32;10.90;
62631;PMS5003;48703;51.248;-0.546;2022-09-09T12:34:54;19.28;16.36;
62631;PMS5003;48703;51.248;-0.546;2022-09-09T12:37:55;12.90;12.81;
62631;PMS5003;48703;51.248;-0.546;2022-09-09T12:40:56;9.49;9.47;
62631;PMS5003;48703;51.248;-0.546;2022-09-09T12:44:03;7.03;6.94;
62631;PMS5003;48703;51.248;-0.546;2022-09-09T12:46:59;6.34;5.63;
62631;PMS5003;48703;51.248;-0.546;2022-09-09T12:50:00;4.47;4.47;
62631;PMS5003;48703;51.248;-0.546;2022-09-09T12:53:03;6.13;5.16;
62631;PMS5003;48703;51.248;-0.546;2022-09-09T12:56:04;4.59;4.37;
62631;PMS5003;48703;51.248;-0.546;2022-09-09T12:59:05;5.23;4.14;
62631;PMS5003;48703;51.248;-0.546;2022-09-09T13:02:11;2.53;2.47;
62631;PMS5003;48703;51.248;-0.546;2022-09-09T13:05:13;2.41;2.41;
62631;PMS5003;48703;51.248;-0.546;2022-09-09T13:08:10;1.87;1.61;
62631;PMS5003;48703;51.248;-0.546;2022-09-09T13:11:12;3.17;2.53;
62631;PMS5003;48703;51.248;-0.546;2022-09-09T13:14:12;2.34;2.09;
62631;PMS5003;48703;51.248;-0.546;2022-09-09T13:17:15;1.77;1.77;
62631;PMS5003;48703;51.248;-0.546;2022-09-09T13:20:16;2.29;2.27;
62631;PMS5003;48703;51.248;-0.546;2022-09-09T13:23:16;2.17;2.17;
62631;PMS5003;48703;51.248;-0.546;2022-09-09T13:26:20;1.36;1.36;
62631;PMS5003;48703;51.248;-0.546;2022-09-09T13:29:19;2.33;2.03;
62631;PMS5003;48703;51.248;-0.546;2022-09-09T13:32:21;1.26;1.26;
62631;PMS5003;48703;51.248;-0.546;2022-09-09T13:35:22;1.50;1.50;
62631;PMS5003;48703;51.248;-0.546;2022-09-09T13:38:23;1.87;1.87;
62631;PMS5003;48703;51.248;-0.546;2022-09-09T13:41:25;2.69;1.87;
62631;PMS5003;48703;51.248;-0.546;2022-09-09T13:44:27;2.99;2.20;
62631;PMS5003;48703;51.248;-0.546;2022-09-09T13:47:28;2.56;2.13;
62631;PMS5003;48703;51.248;-0.546;2022-09-09T13:50:29;3.58;3.13;
62631;PMS5003;48703;51.248;-0.546;2022-09-09T13:53:30;2.27;1.99;
62631;PMS5003;48703;51.248;-0.546;2022-09-09T13:56:32;3.13;2.67;
62631;PMS5003;48703;51.248;-0.546;2022-09-09T13:59:33;2.00;2.00;
62631;PMS5003;48703;51.248;-0.546;2022-09-09T14:02:34;2.83;2.83;
62631;PMS5003;48703;51.248;-0.546;2022-09-09T14:05:36;3.19;2.63;
62631;PMS5003;48703;51.248;-0.546;2022-09-09T14:08:37;2.34;2.34;
62631;PMS5003;48703;51.248;-0.546;2022-09-09T14:11:39;2.91;2.91;
62631;PMS5003;48703;51.248;-0.546;2022-09-09T14:14:40;2.20;2.20;
62631;PMS5003;48703;51.248;-0.546;2022-09-09T14:17:42;2.54;2.54;
62631;PMS5003;48703;51.248;-0.546;2022-09-09T14:20:43;3.79;2.59;
62631;PMS5003;48703;51.248;-0.546;2022-09-09T14:23:44;2.03;2.03;
62631;PMS5003;48703;51.248;-0.546;2022-09-09T14:26:46;2.00;1.79;
62631;PMS5003;48703;51.248;-0.546;2022-09-09T14:29:47;3.23;2.80;
62631;PMS5003;48703;51.248;-0.546;2022-09-09T14:32:49;2.97;2.81;
62631;PMS5003;48703;51.248;-0.546;2022-09-09T14:35:55;3.54;3.28;
62631;PMS5003;48703;51.248;-0.546;2022-09-09T14:38:51;3.24;2.94;
62631;PMS5003;48703;51.248;-0.546;2022-09-09T14:41:53;2.70;1.97;
62631;PMS5003;48703;51.248;-0.546;2022-09-09T14:44:54;2.33;2.07;
62631;PMS5003;48703;51.248;-0.546;2022-09-09T14:47:55;2.54;2.54;
62631;PMS5003;48703;51.248;-0.546;2022-09-09T14:50:57;2.27;1.79;
62631;PMS5003;48703;51.248;-0.546;2022-09-09T14:53:58;2.44;2.44;
62631;PMS5003;48703;51.248;-0.546;2022-09-09T14:57:00;1.53;1.53;
62631;PMS5003;48703;51.248;-0.546;2022-09-09T15:00:01;2.73;2.30;
62631;PMS5003;48703;51.248;-0.546;2022-09-09T15:03:02;2.26;1.33;
62631;PMS5003;48703;51.248;-0.546;2022-09-09T15:06:05;2.76;2.29;
62631;PMS5003;48703;51.248;-0.546;2022-09-09T15:09:05;2.33;2.33;
62631;PMS5003;48703;51.248;-0.546;2022-09-09T15:12:07;2.14;1.97;
62631;PMS5003;48703;51.248;-0.546;2022-09-09T15:15:09;1.24;1.24;
62631;PMS5003;48703;51.248;-0.546;2022-09-09T15:18:10;2.50;1.86;
62631;PMS5003;48703;51.248;-0.546;2022-09-09T15:21:11;4.71;3.76;
62631;PMS5003;48703;51.248;-0.546;2022-09-09T15:24:12;1.87;1.87;
62631;PMS5003;48703;51.248;-0.546;2022-09-09T15:27:14;2.37;1.90;
62631;PMS5003;48703;51.248;-0.546;2022-09-09T15:30:15;2.74;2.47;
62631;PMS5003;48703;51.248;-0.546;2022-09-09T15:33:17;2.37;2.37;
62631;PMS5003;48703;51.248;-0.546;2022-09-09T15:36:18;3.66;3.06;
62631;PMS5003;48703;51.248;-0.546;2022-09-09T15:39:19;1.90;1.90;
62631;PMS5003;48703;51.248;-0.546;2022-09-09T15:42:21;2.41;2.07;
62631;PMS5003;48703;51.248;-0.546;2022-09-09T15:45:22;1.84;1.67;
62631;PMS5003;48703;51.248;-0.546;2022-09-09T15:48:25;2.30;2.30;
62631;PMS5003;48703;51.248;-0.546;2022-09-09T15:51:25;2.43;2.34;
62631;PMS5003;48703;51.248;-0.546;2022-09-09T15:54:26;1.44;1.44;
62631;PMS5003;48703;51.248;-0.546;2022-09-09T15:57:28;1.74;1.74;
62631;PMS5003;48703;51.248;-0.546;2022-09-09T16:00:29;1.76;1.76;
62631;PMS5003;48703;51.248;-0.546;2022-09-09T16:03:33;2.13;1.79;
62631;PMS5003;48703;51.248;-0.546;2022-09-09T16:06:32;3.06;2.37;
62631;PMS5003;48703;51.248;-0.546;2022-09-09T16:09:34;1.96;1.96;
62631;PMS5003;48703;51.248;-0.546;2022-09-09T16:12:35;2.63;2.41;
62631;PMS5003;48703;51.248;-0.546;2022-09-09T16:15:36;3.04;2.66;
62631;PMS5003;48703;51.248;-0.546;2022-09-09T16:18:39;2.83;2.83;
62631;PMS5003;48703;51.248;-0.546;2022-09-09T16:21:40;2.97;2.97;
62631;PMS5003;48703;51.248;-0.546;2022-09-09T16:24:41;2.73;2.73;
62631;PMS5003;48703;51.248;-0.546;2022-09-09T16:27:42;3.17;3.17;
62631;PMS5003;48703;51.248;-0.546;2022-09-09T16:30:43;2.70;2.70;
62631;PMS5003;48703;51.248;-0.546;2022-09-09T16:33:45;2.53;2.44;
62631;PMS5003;48703;51.248;-0.546;2022-09-09T16:36:47;2.29;2.29;
62631;PMS5003;48703;51.248;-0.546;2022-09-09T16:39:48;3.53;3.01;
62631;PMS5003;48703;51.248;-0.546;2022-09-09T16:42:49;3.54;2.99;
62631;PMS5003;48703;51.248;-0.546;2022-09-09T16:45:50;2.66;2.66;
62631;PMS5003;48703;51.248;-0.546;2022-09-09T16:48:52;3.91;3.20;
62631;PMS5003;48703;51.248;-0.546;2022-09-09T16:51:53;4.04;3.44;
62631;PMS5003;48703;51.248;-0.546;2022-09-09T16:54:55;3.21;3.21;
62631;PMS5003;48703;51.248;-0.546;2022-09-09T16:57:57;3.24;3.24;
62631;PMS5003;48703;51.248;-0.546;2022-09-09T17:00:58;4.13;3.87;
62631;PMS5003;48703;51.248;-0.546;2022-09-09T17:04:00;3.87;3.44;
62631;PMS5003;48703;51.248;-0.546;2022-09-09T17:07:01;3.34;2.76;
62631;PMS5003;48703;51.248;-0.546;2022-09-09T17:10:02;3.71;3.69;
62631;PMS5003;48703;51.248;-0.546;2022-09-09T17:13:04;4.11;3.59;
62631;PMS5003;48703;51.248;-0.546;2022-09-09T17:16:05;3.69;3.47;
62631;PMS5003;48703;51.248;-0.546;2022-09-09T17:19:07;4.54;4.54;
62631;PMS5003;48703;51.248;-0.546;2022-09-09T17:22:08;2.89;2.89;
62631;PMS5003;48703;51.248;-0.546;2022-09-09T17:25:09;4.61;3.87;
62631;PMS5003;48703;51.248;-0.546;2022-09-09T17:28:11;4.40;2.90;
62631;PMS5003;48703;51.248;-0.546;2022-09-09T17:31:13;4.13;4.13;
62631;PMS5003;48703;51.248;-0.546;2022-09-09T17:34:14;4.19;4.17;
62631;PMS5003;48703;51.248;-0.546;2022-09-09T17:37:15;4.54;4.50;
62631;PMS5003;48703;51.248;-0.546;2022-09-09T17:40:16;4.09;4.09;
62631;PMS5003;48703;51.248;-0.546;2022-09-09T17:43:18;4.71;4.06;
62631;PMS5003;48703;51.248;-0.546;2022-09-09T17:46:19;3.79;3.79;
62631;PMS5003;48703;51.248;-0.546;2022-09-09T17:49:20;3.77;3.77;
62631;PMS5003;48703;51.248;-0.546;2022-09-09T17:52:22;4.27;4.27;
62631;PMS5003;48703;51.248;-0.546;2022-09-09T17:55:23;3.86;3.77;
62631;PMS5003;48703;51.248;-0.546;2022-09-09T17:58:25;5.16;4.56;
62631;PMS5003;48703;51.248;-0.546;2022-09-09T18:01:27;4.77;4.33;
62631;PMS5003;48703;51.248;-0.546;2022-09-09T18:04:28;4.34;4.13;
62631;PMS5003;48703;51.248;-0.546;2022-09-09T18:07:29;4.14;4.13;
62631;PMS5003;48703;51.248;-0.546;2022-09-09T18:10:30;3.51;3.51;
62631;PMS5003;48703;51.248;-0.546;2022-09-09T18:13:32;6.39;4.69;
62631;PMS5003;48703;51.248;-0.546;2022-09-09T18:16:33;5.26;4.31;
62631;PMS5003;48703;51.248;-0.546;2022-09-09T18:19:35;5.24;4.29;
62631;PMS5003;48703;51.248;-0.546;2022-09-09T18:22:36;4.49;4.44;
62631;PMS5003;48703;51.248;-0.546;2022-09-09T18:25:38;4.83;4.31;
62631;PMS5003;48703;51.248;-0.546;2022-09-09T18:28:40;4.66;4.66;